sensor_id;sensor_type;location;lat;lon;timestamp;P1;durP1;ratioP1;P2;durP2;ratioP2
18947;SDS011;9607;51.600;7.558;2023-07-13T00:01:54;3.67;;;1.75;;
18947;SDS011;9607;51.600;7.558;2023-07-13T00:04:23;5.05;;;1.75;;
18947;SDS011;9607;51.600;7.558;2023-07-13T00:06:51;2.78;;;1.60;;
18947;SDS011;9607;51.600;7.558;2023-07-13T00:09:18;4.88;;;2.00;;
18947;SDS011;9607;51.600;7.558;2023-07-13T00:11:50;5.82;;;2.50;;
18947;SDS011;9607;51.600;7.558;2023-07-13T00:14:21;4.15;;;1.90;;
18947;SDS011;9607;51.600;7.558;2023-07-13T00:16:48;3.55;;;1.70;;
18947;SDS011;9607;51.600;7.558;2023-07-13T00:19:14;5.45;;;2.03;;
18947;SDS011;9607;51.600;7.558;2023-07-13T00:21:43;5.15;;;2.20;;
18947;SDS011;9607;51.600;7.558;2023-07-13T00:24:11;5.00;;;2.28;;
18947;SDS011;9607;51.600;7.558;2023-07-13T00:26:39;5.75;;;2.30;;
18947;SDS011;9607;51.600;7.558;2023-07-13T00:29:05;5.70;;;2.38;;
18947;SDS011;9607;51.600;7.558;2023-07-13T00:31:34;3.38;;;1.92;;
18947;SDS011;9607;51.600;7.558;2023-07-13T00:34:01;4.65;;;2.08;;
18947;SDS011;9607;51.600;7.558;2023-07-13T00:36:28;3.42;;;1.77;;
18947;SDS011;9607;51.600;7.558;2023-07-13T00:38:57;3.30;;;1.95;;
18947;SDS011;9607;51.600;7.558;2023-07-13T00:41:24;2.35;;;1.58;;
18947;SDS011;9607;51.600;7.558;2023-07-13T00:43:51;4.82;;;1.60;;
18947;SDS011;9607;51.600;7.558;2023-07-13T00:46:22;2.30;;;1.50;;
18947;SDS011;9607;51.600;7.558;2023-07-13T00:48:51;2.50;;;1.50;;
18947;SDS011;9607;51.600;7.558;2023-07-13T00:51:22;4.35;;;1.77;;
18947;SDS011;9607;51.600;7.558;2023-07-13T00:53:53;3.75;;;1.52;;
18947;SDS011;9607;51.600;7.558;2023-07-13T00:56:24;4.50;;;1.60;;
18947;SDS011;9607;51.600;7.558;2023-07-13T00:58:51;3.03;;;1.10;;
18947;SDS011;9607;51.600;7.558;2023-07-13T01:01:19;1.13;;;1.02;;
18947;SDS011;9607;51.600;7.558;2023-07-13T01:03:46;1.45;;;1.17;;
18947;SDS011;9607;51.600;7.558;2023-07-13T01:06:12;1.70;;;1.20;;
18947;SDS011;9607;51.600;7.558;2023-07-13T01:08:39;1.88;;;1.20;;
18947;SDS011;9607;51.600;7.558;2023-07-13T01:11:06;2.00;;;1.02;;
18947;SDS011;9607;51.600;7.558;2023-07-13T01:13:35;3.72;;;1.20;;
18947;SDS011;9607;51.600;7.558;2023-07-13T01:16:02;3.50;;;1.20;;
18947;SDS011;9607;51.600;7.558;2023-07-13T01:18:38;2.72;;;1.20;;
18947;SDS011;9607;51.600;7.558;2023-07-13T01:21:06;2.10;;;1.17;;
18947;SDS011;9607;51.600;7.558;2023-07-13T01:23:33;2.17;;;1.13;;
18947;SDS011;9607;51.600;7.558;2023-07-13T01:26:00;2.60;;;1.42;;
18947;SDS011;9607;51.600;7.558;2023-07-13T01:28:27;0.88;;;0.82;;
18947;SDS011;9607;51.600;7.558;2023-07-13T01:30:56;1.08;;;0.85;;
18947;SDS011;9607;51.600;7.558;2023-07-13T01:33:24;2.78;;;1.10;;
18947;SDS011;9607;51.600;7.558;2023-07-13T01:35:51;1.83;;;1.00;;
18947;SDS011;9607;51.600;7.558;2023-07-13T01:38:20;5.38;;;1.60;;
18947;SDS011;9607;51.600;7.558;2023-07-13T01:40:48;1.95;;;1.08;;
18947;SDS011;9607;51.600;7.558;2023-07-13T01:43:16;2.22;;;1.30;;
18947;SDS011;9607;51.600;7.558;2023-07-13T01:45:43;4.05;;;1.30;;
18947;SDS011;9607;51.600;7.558;2023-07-13T01:48:10;3.08;;;1.17;;
18947;SDS011;9607;51.600;7.558;2023-07-13T01:50:37;1.70;;;1.02;;
18947;SDS011;9607;51.600;7.558;2023-07-13T01:53:04;1.23;;;0.80;;
18947;SDS011;9607;51.600;7.558;2023-07-13T01:55:33;2.97;;;1.23;;
18947;SDS011;9607;51.600;7.558;2023-07-13T01:58:00;2.47;;;1.25;;
18947;SDS011;9607;51.600;7.558;2023-07-13T02:00:27;4.05;;;1.50;;
18947;SDS011;9607;51.600;7.558;2023-07-13T02:02:54;3.15;;;1.33;;
18947;SDS011;9607;51.600;7.558;2023-07-13T02:05:20;4.20;;;1.35;;
18947;SDS011;9607;51.600;7.558;2023-07-13T02:07:48;1.80;;;0.98;;
18947;SDS011;9607;51.600;7.558;2023-07-13T02:10:15;1.35;;;0.93;;
18947;SDS011;9607;51.600;7.558;2023-07-13T02:12:43;5.45;;;1.60;;
18947;SDS011;9607;51.600;7.558;2023-07-13T02:15:10;6.63;;;1.35;;
18947;SDS011;9607;51.600;7.558;2023-07-13T02:17:37;3.55;;;1.40;;
18947;SDS011;9607;51.600;7.558;2023-07-13T02:20:04;3.10;;;1.20;;
18947;SDS011;9607;51.600;7.558;2023-07-13T02:22:32;2.47;;;1.17;;
18947;SDS011;9607;51.600;7.558;2023-07-13T02:24:59;1.88;;;1.00;;
18947;SDS011;9607;51.600;7.558;2023-07-13T02:27:25;3.38;;;1.27;;
18947;SDS011;9607;51.600;7.558;2023-07-13T02:29:54;2.30;;;1.00;;
18947;SDS011;9607;51.600;7.558;2023-07-13T02:32:21;3.85;;;2.30;;
18947;SDS011;9607;51.600;7.558;2023-07-13T02:34:50;4.68;;;1.05;;
18947;SDS011;9607;51.600;7.558;2023-07-13T02:37:17;3.45;;;1.27;;
18947;SDS011;9607;51.600;7.558;2023-07-13T02:39:43;5.35;;;1.33;;
18947;SDS011;9607;51.600;7.558;2023-07-13T02:42:11;1.52;;;1.08;;
18947;SDS011;9607;51.600;7.558;2023-07-13T02:44:37;1.85;;;1.00;;
18947;SDS011;9607;51.600;7.558;2023-07-13T02:47:06;3.13;;;1.70;;
18947;SDS011;9607;51.600;7.558;2023-07-13T02:49:33;2.03;;;1.10;;
18947;SDS011;9607;51.600;7.558;2023-07-13T02:52:00;2.53;;;1.35;;
18947;SDS011;9607;51.600;7.558;2023-07-13T02:54:26;3.40;;;1.55;;
18947;SDS011;9607;51.600;7.558;2023-07-13T02:56:53;2.78;;;1.30;;
18947;SDS011;9607;51.600;7.558;2023-07-13T02:59:20;1.38;;;1.10;;
18947;SDS011;9607;51.600;7.558;2023-07-13T03:01:47;1.65;;;1.25;;
18947;SDS011;9607;51.600;7.558;2023-07-13T03:04:15;5.22;;;1.60;;
18947;SDS011;9607;51.600;7.558;2023-07-13T03:06:44;4.55;;;1.30;;
18947;SDS011;9607;51.600;7.558;2023-07-13T03:09:11;1.48;;;0.93;;
18947;SDS011;9607;51.600;7.558;2023-07-13T03:11:38;1.65;;;1.08;;
18947;SDS011;9607;51.600;7.558;2023-07-13T03:14:05;4.63;;;1.40;;
18947;SDS011;9607;51.600;7.558;2023-07-13T03:16:31;3.10;;;1.48;;
18947;SDS011;9607;51.600;7.558;2023-07-13T03:18:58;3.63;;;1.45;;
18947;SDS011;9607;51.600;7.558;2023-07-13T03:21:26;3.47;;;1.13;;
18947;SDS011;9607;51.600;7.558;2023-07-13T03:23:53;3.22;;;1.30;;
18947;SDS011;9607;51.600;7.558;2023-07-13T03:28:50;3.88;;;1.48;;
18947;SDS011;9607;51.600;7.558;2023-07-13T03:31:18;4.53;;;1.35;;
18947;SDS011;9607;51.600;7.558;2023-07-13T03:33:46;2.00;;;0.95;;
18947;SDS011;9607;51.600;7.558;2023-07-13T03:36:14;1.50;;;0.82;;
18947;SDS011;9607;51.600;7.558;2023-07-13T03:38:45;4.47;;;1.67;;
18947;SDS011;9607;51.600;7.558;2023-07-13T03:41:13;2.70;;;1.38;;
18947;SDS011;9607;51.600;7.558;2023-07-13T03:43:40;3.13;;;1.38;;
18947;SDS011;9607;51.600;7.558;2023-07-13T03:46:06;6.10;;;1.35;;
18947;SDS011;9607;51.600;7.558;2023-07-13T03:48:33;2.92;;;1.30;;
18947;SDS011;9607;51.600;7.558;2023-07-13T03:51:00;4.18;;;1.20;;
18947;SDS011;9607;51.600;7.558;2023-07-13T03:53:27;3.53;;;1.00;;
18947;SDS011;9607;51.600;7.558;2023-07-13T03:55:55;2.90;;;1.40;;
18947;SDS011;9607;51.600;7.558;2023-07-13T03:58:26;3.38;;;1.17;;
18947;SDS011;9607;51.600;7.558;2023-07-13T04:00:55;3.30;;;1.40;;
18947;SDS011;9607;51.600;7.558;2023-07-13T04:03:23;3.30;;;1.30;;
18947;SDS011;9607;51.600;7.558;2023-07-13T04:05:53;6.70;;;1.70;;
18947;SDS011;9607;51.600;7.558;2023-07-13T04:08:24;5.00;;;1.20;;
18947;SDS011;9607;51.600;7.558;2023-07-13T04:10:52;4.15;;;1.50;;
18947;SDS011;9607;51.600;7.558;2023-07-13T04:13:20;3.15;;;1.40;;
18947;SDS011;9607;51.600;7.558;2023-07-13T04:15:47;4.13;;;1.40;;
18947;SDS011;9607;51.600;7.558;2023-07-13T04:18:14;3.45;;;1.52;;
18947;SDS011;9607;51.600;7.558;2023-07-13T04:20:40;4.13;;;1.40;;
18947;SDS011;9607;51.600;7.558;2023-07-13T04:23:07;4.35;;;1.38;;
18947;SDS011;9607;51.600;7.558;2023-07-13T04:25:34;3.25;;;1.10;;
18947;SDS011;9607;51.600;7.558;2023-07-13T04:28:01;3.28;;;1.35;;
18947;SDS011;9607;51.600;7.558;2023-07-13T04:30:30;5.88;;;1.88;;
18947;SDS011;9607;51.600;7.558;2023-07-13T04:32:57;9.38;;;1.90;;
18947;SDS011;9607;51.600;7.558;2023-07-13T04:35:24;5.85;;;1.48;;
18947;SDS011;9607;51.600;7.558;2023-07-13T04:37:51;5.15;;;1.48;;
18947;SDS011;9607;51.600;7.558;2023-07-13T04:40:29;3.08;;;1.35;;
18947;SDS011;9607;51.600;7.558;2023-07-13T04:42:56;4.63;;;1.67;;
18947;SDS011;9607;51.600;7.558;2023-07-13T04:45:23;5.75;;;1.85;;
18947;SDS011;9607;51.600;7.558;2023-07-13T04:47:52;4.13;;;1.75;;
18947;SDS011;9607;51.600;7.558;2023-07-13T04:50:19;8.52;;;1.92;;
18947;SDS011;9607;51.600;7.558;2023-07-13T04:52:48;8.98;;;1.98;;
18947;SDS011;9607;51.600;7.558;2023-07-13T04:55:16;3.13;;;1.42;;
18947;SDS011;9607;51.600;7.558;2023-07-13T04:57:43;5.85;;;1.60;;
18947;SDS011;9607;51.600;7.558;2023-07-13T05:00:11;6.15;;;1.50;;
18947;SDS011;9607;51.600;7.558;2023-07-13T05:02:39;3.22;;;1.50;;
18947;SDS011;9607;51.600;7.558;2023-07-13T05:05:07;5.32;;;1.58;;
18947;SDS011;9607;51.600;7.558;2023-07-13T05:07:34;5.68;;;1.65;;
18947;SDS011;9607;51.600;7.558;2023-07-13T05:10:01;5.28;;;1.63;;
18947;SDS011;9607;51.600;7.558;2023-07-13T05:12:28;7.43;;;1.73;;
18947;SDS011;9607;51.600;7.558;2023-07-13T05:14:55;3.28;;;1.70;;
18947;SDS011;9607;51.600;7.558;2023-07-13T05:17:22;4.85;;;1.98;;
18947;SDS011;9607;51.600;7.558;2023-07-13T05:19:49;7.43;;;1.50;;
18947;SDS011;9607;51.600;7.558;2023-07-13T05:22:17;5.30;;;1.45;;
18947;SDS011;9607;51.600;7.558;2023-07-13T05:24:44;3.22;;;1.50;;
18947;SDS011;9607;51.600;7.558;2023-07-13T05:27:11;5.03;;;1.45;;
18947;SDS011;9607;51.600;7.558;2023-07-13T05:29:37;4.07;;;1.63;;
18947;SDS011;9607;51.600;7.558;2023-07-13T05:32:05;8.20;;;1.95;;
18947;SDS011;9607;51.600;7.558;2023-07-13T05:34:32;7.40;;;2.22;;
18947;SDS011;9607;51.600;7.558;2023-07-13T05:36:58;4.80;;;1.52;;
18947;SDS011;9607;51.600;7.558;2023-07-13T05:39:27;5.22;;;1.65;;
18947;SDS011;9607;51.600;7.558;2023-07-13T05:41:54;4.63;;;1.42;;
18947;SDS011;9607;51.600;7.558;2023-07-13T05:44:21;8.77;;;2.00;;
18947;SDS011;9607;51.600;7.558;2023-07-13T05:46:47;3.90;;;1.67;;
18947;SDS011;9607;51.600;7.558;2023-07-13T05:49:14;5.47;;;2.10;;
18947;SDS011;9607;51.600;7.558;2023-07-13T05:51:41;5.78;;;1.70;;
18947;SDS011;9607;51.600;7.558;2023-07-13T05:54:08;9.23;;;2.15;;
18947;SDS011;9607;51.600;7.558;2023-07-13T05:56:36;5.40;;;2.10;;
18947;SDS011;9607;51.600;7.558;2023-07-13T05:59:03;6.18;;;2.08;;
18947;SDS011;9607;51.600;7.558;2023-07-13T06:01:30;7.00;;;1.90;;
18947;SDS011;9607;51.600;7.558;2023-07-13T06:03:58;6.13;;;1.88;;
18947;SDS011;9607;51.600;7.558;2023-07-13T06:06:25;5.82;;;2.15;;
18947;SDS011;9607;51.600;7.558;2023-07-13T06:08:52;3.92;;;1.58;;
18947;SDS011;9607;51.600;7.558;2023-07-13T06:11:20;6.13;;;2.15;;
18947;SDS011;9607;51.600;7.558;2023-07-13T06:13:49;8.20;;;2.50;;
18947;SDS011;9607;51.600;7.558;2023-07-13T06:16:16;3.50;;;1.83;;
18947;SDS011;9607;51.600;7.558;2023-07-13T06:18:43;7.78;;;2.90;;
18947;SDS011;9607;51.600;7.558;2023-07-13T06:21:12;9.55;;;2.10;;
18947;SDS011;9607;51.600;7.558;2023-07-13T06:23:40;7.03;;;1.80;;
18947;SDS011;9607;51.600;7.558;2023-07-13T06:26:07;8.10;;;2.10;;
18947;SDS011;9607;51.600;7.558;2023-07-13T06:28:35;7.28;;;2.20;;
18947;SDS011;9607;51.600;7.558;2023-07-13T06:31:06;6.85;;;1.80;;
18947;SDS011;9607;51.600;7.558;2023-07-13T06:33:34;8.60;;;2.17;;
18947;SDS011;9607;51.600;7.558;2023-07-13T06:36:01;6.30;;;2.25;;
18947;SDS011;9607;51.600;7.558;2023-07-13T06:38:28;6.18;;;2.10;;
18947;SDS011;9607;51.600;7.558;2023-07-13T06:40:54;6.85;;;2.28;;
18947;SDS011;9607;51.600;7.558;2023-07-13T06:43:21;7.65;;;2.20;;
18947;SDS011;9607;51.600;7.558;2023-07-13T06:45:50;8.77;;;2.28;;
18947;SDS011;9607;51.600;7.558;2023-07-13T06:48:19;5.03;;;2.13;;
18947;SDS011;9607;51.600;7.558;2023-07-13T06:50:46;9.18;;;2.40;;
18947;SDS011;9607;51.600;7.558;2023-07-13T06:53:14;9.07;;;2.63;;
18947;SDS011;9607;51.600;7.558;2023-07-13T06:55:43;9.27;;;2.83;;
18947;SDS011;9607;51.600;7.558;2023-07-13T06:58:10;7.68;;;2.10;;
18947;SDS011;9607;51.600;7.558;2023-07-13T07:00:38;9.90;;;2.30;;
18947;SDS011;9607;51.600;7.558;2023-07-13T07:03:05;7.10;;;2.55;;
18947;SDS011;9607;51.600;7.558;2023-07-13T07:05:33;4.72;;;2.08;;
18947;SDS011;9607;51.600;7.558;2023-07-13T07:08:00;9.15;;;2.50;;
18947;SDS011;9607;51.600;7.558;2023-07-13T07:10:28;6.40;;;2.80;;
18947;SDS011;9607;51.600;7.558;2023-07-13T07:12:56;10.20;;;2.63;;
18947;SDS011;9607;51.600;7.558;2023-07-13T07:15:22;7.82;;;2.70;;
18947;SDS011;9607;51.600;7.558;2023-07-13T07:17:49;8.75;;;2.28;;
18947;SDS011;9607;51.600;7.558;2023-07-13T07:20:16;8.40;;;2.72;;
18947;SDS011;9607;51.600;7.558;2023-07-13T07:22:44;8.00;;;2.60;;
18947;SDS011;9607;51.600;7.558;2023-07-13T07:25:11;6.63;;;2.13;;
18947;SDS011;9607;51.600;7.558;2023-07-13T07:27:38;8.70;;;2.22;;
18947;SDS011;9607;51.600;7.558;2023-07-13T07:30:05;5.82;;;1.95;;
18947;SDS011;9607;51.600;7.558;2023-07-13T07:32:33;8.93;;;2.40;;
18947;SDS011;9607;51.600;7.558;2023-07-13T07:35:00;7.32;;;2.67;;
18947;SDS011;9607;51.600;7.558;2023-07-13T07:37:26;7.65;;;2.40;;
18947;SDS011;9607;51.600;7.558;2023-07-13T07:39:54;4.70;;;2.15;;
18947;SDS011;9607;51.600;7.558;2023-07-13T07:42:21;8.52;;;2.50;;
18947;SDS011;9607;51.600;7.558;2023-07-13T07:44:48;3.47;;;1.98;;
18947;SDS011;9607;51.600;7.558;2023-07-13T07:47:15;5.75;;;1.85;;
18947;SDS011;9607;51.600;7.558;2023-07-13T07:49:42;8.30;;;2.35;;
18947;SDS011;9607;51.600;7.558;2023-07-13T07:52:09;7.03;;;2.13;;
18947;SDS011;9607;51.600;7.558;2023-07-13T07:54:36;5.88;;;2.50;;
18947;SDS011;9607;51.600;7.558;2023-07-13T07:57:04;6.05;;;2.25;;
18947;SDS011;9607;51.600;7.558;2023-07-13T07:59:31;6.40;;;2.28;;
18947;SDS011;9607;51.600;7.558;2023-07-13T08:01:58;7.22;;;2.13;;
18947;SDS011;9607;51.600;7.558;2023-07-13T08:04:27;5.65;;;2.22;;
18947;SDS011;9607;51.600;7.558;2023-07-13T08:06:54;6.03;;;2.10;;
18947;SDS011;9607;51.600;7.558;2023-07-13T08:09:21;10.52;;;2.90;;
18947;SDS011;9607;51.600;7.558;2023-07-13T08:11:48;8.30;;;2.67;;
18947;SDS011;9607;51.600;7.558;2023-07-13T08:14:17;5.22;;;2.40;;
18947;SDS011;9607;51.600;7.558;2023-07-13T08:16:44;5.78;;;2.58;;
18947;SDS011;9607;51.600;7.558;2023-07-13T08:19:11;7.65;;;2.03;;
18947;SDS011;9607;51.600;7.558;2023-07-13T08:21:37;6.10;;;2.38;;
18947;SDS011;9607;51.600;7.558;2023-07-13T08:24:04;7.15;;;2.40;;
18947;SDS011;9607;51.600;7.558;2023-07-13T08:26:31;6.97;;;2.10;;
18947;SDS011;9607;51.600;7.558;2023-07-13T08:28:58;7.53;;;2.67;;
18947;SDS011;9607;51.600;7.558;2023-07-13T08:31:26;6.45;;;2.20;;
18947;SDS011;9607;51.600;7.558;2023-07-13T08:33:53;7.85;;;2.88;;
18947;SDS011;9607;51.600;7.558;2023-07-13T08:36:19;4.82;;;2.22;;
18947;SDS011;9607;51.600;7.558;2023-07-13T08:38:46;5.47;;;1.80;;
18947;SDS011;9607;51.600;7.558;2023-07-13T08:41:13;5.07;;;2.15;;
18947;SDS011;9607;51.600;7.558;2023-07-13T08:43:43;4.38;;;1.40;;
18947;SDS011;9607;51.600;7.558;2023-07-13T08:46:14;4.40;;;1.90;;
18947;SDS011;9607;51.600;7.558;2023-07-13T08:48:47;5.05;;;1.88;;
18947;SDS011;9607;51.600;7.558;2023-07-13T08:51:22;7.10;;;2.03;;
18947;SDS011;9607;51.600;7.558;2023-07-13T08:53:57;3.83;;;1.73;;
18947;SDS011;9607;51.600;7.558;2023-07-13T08:56:27;4.25;;;1.60;;
18947;SDS011;9607;51.600;7.558;2023-07-13T08:58:55;4.25;;;1.30;;
18947;SDS011;9607;51.600;7.558;2023-07-13T09:01:24;3.60;;;1.65;;
18947;SDS011;9607;51.600;7.558;2023-07-13T09:03:58;5.65;;;1.95;;
18947;SDS011;9607;51.600;7.558;2023-07-13T09:06:31;5.97;;;1.70;;
18947;SDS011;9607;51.600;7.558;2023-07-13T09:09:16;3.53;;;1.50;;
18947;SDS011;9607;51.600;7.558;2023-07-13T09:11:50;5.47;;;1.60;;
18947;SDS011;9607;51.600;7.558;2023-07-13T09:17:14;3.97;;;2.03;;
18947;SDS011;9607;51.600;7.558;2023-07-13T09:19:44;3.85;;;1.67;;
18947;SDS011;9607;51.600;7.558;2023-07-13T09:22:16;4.50;;;2.00;;
18947;SDS011;9607;51.600;7.558;2023-07-13T09:24:50;3.58;;;1.80;;
18947;SDS011;9607;51.600;7.558;2023-07-13T09:27:22;6.20;;;1.90;;
18947;SDS011;9607;51.600;7.558;2023-07-13T09:29:55;4.97;;;1.90;;
18947;SDS011;9607;51.600;7.558;2023-07-13T09:32:27;8.35;;;2.60;;
18947;SDS011;9607;51.600;7.558;2023-07-13T09:34:57;7.32;;;1.90;;
18947;SDS011;9607;51.600;7.558;2023-07-13T09:37:28;5.55;;;1.90;;
18947;SDS011;9607;51.600;7.558;2023-07-13T09:39:57;3.55;;;1.30;;
18947;SDS011;9607;51.600;7.558;2023-07-13T09:42:29;6.20;;;1.90;;
18947;SDS011;9607;51.600;7.558;2023-07-13T09:44:57;5.85;;;1.73;;
18947;SDS011;9607;51.600;7.558;2023-07-13T09:47:28;9.07;;;3.20;;
18947;SDS011;9607;51.600;7.558;2023-07-13T09:49:58;4.07;;;2.03;;
18947;SDS011;9607;51.600;7.558;2023-07-13T09:52:27;5.13;;;2.15;;
18947;SDS011;9607;51.600;7.558;2023-07-13T09:55:12;6.25;;;2.03;;
18947;SDS011;9607;51.600;7.558;2023-07-13T09:57:50;3.83;;;1.60;;
18947;SDS011;9607;51.600;7.558;2023-07-13T10:00:20;4.28;;;1.85;;
18947;SDS011;9607;51.600;7.558;2023-07-13T10:02:57;6.72;;;2.00;;
18947;SDS011;9607;51.600;7.558;2023-07-13T10:05:27;6.35;;;1.88;;
18947;SDS011;9607;51.600;7.558;2023-07-13T10:07:55;6.93;;;1.60;;
18947;SDS011;9607;51.600;7.558;2023-07-13T10:10:22;4.45;;;1.80;;
18947;SDS011;9607;51.600;7.558;2023-07-13T10:12:49;2.58;;;1.30;;
18947;SDS011;9607;51.600;7.558;2023-07-13T10:15:17;8.55;;;2.40;;
18947;SDS011;9607;51.600;7.558;2023-07-13T10:17:46;6.22;;;1.95;;
18947;SDS011;9607;51.600;7.558;2023-07-13T10:20:14;3.45;;;1.73;;
18947;SDS011;9607;51.600;7.558;2023-07-13T10:22:44;6.80;;;2.03;;
18947;SDS011;9607;51.600;7.558;2023-07-13T10:25:16;4.45;;;1.65;;
18947;SDS011;9607;51.600;7.558;2023-07-13T10:27:44;4.82;;;2.03;;
18947;SDS011;9607;51.600;7.558;2023-07-13T10:30:13;3.65;;;1.80;;
18947;SDS011;9607;51.600;7.558;2023-07-13T10:32:44;6.05;;;2.15;;
18947;SDS011;9607;51.600;7.558;2023-07-13T10:35:13;4.30;;;2.10;;
18947;SDS011;9607;51.600;7.558;2023-07-13T10:37:45;5.57;;;1.90;;
18947;SDS011;9607;51.600;7.558;2023-07-13T10:40:16;2.58;;;1.95;;
18947;SDS011;9607;51.600;7.558;2023-07-13T10:42:48;3.55;;;1.90;;
18947;SDS011;9607;51.600;7.558;2023-07-13T10:45:19;4.32;;;1.95;;
18947;SDS011;9607;51.600;7.558;2023-07-13T10:47:48;5.32;;;2.58;;
18947;SDS011;9607;51.600;7.558;2023-07-13T10:50:18;4.10;;;2.10;;
18947;SDS011;9607;51.600;7.558;2023-07-13T10:52:49;4.07;;;2.13;;
18947;SDS011;9607;51.600;7.558;2023-07-13T10:55:35;5.03;;;2.05;;
18947;SDS011;9607;51.600;7.558;2023-07-13T10:58:11;4.68;;;1.90;;
18947;SDS011;9607;51.600;7.558;2023-07-13T11:00:43;6.53;;;2.40;;
18947;SDS011;9607;51.600;7.558;2023-07-13T11:03:15;4.45;;;2.20;;
18947;SDS011;9607;51.600;7.558;2023-07-13T11:05:47;5.25;;;1.95;;
18947;SDS011;9607;51.600;7.558;2023-07-13T11:08:20;3.50;;;1.67;;
18947;SDS011;9607;51.600;7.558;2023-07-13T11:10:57;4.85;;;1.98;;
18947;SDS011;9607;51.600;7.558;2023-07-13T11:13:38;5.55;;;2.25;;
18947;SDS011;9607;51.600;7.558;2023-07-13T11:19:35;7.55;;;2.13;;
18947;SDS011;9607;51.600;7.558;2023-07-13T11:22:14;4.35;;;2.10;;
18947;SDS011;9607;51.600;7.558;2023-07-13T11:24:55;5.25;;;1.58;;
18947;SDS011;9607;51.600;7.558;2023-07-13T11:27:35;4.18;;;2.10;;
18947;SDS011;9607;51.600;7.558;2023-07-13T11:33:02;5.10;;;2.08;;
18947;SDS011;9607;51.600;7.558;2023-07-13T11:35:39;3.92;;;1.92;;
18947;SDS011;9607;51.600;7.558;2023-07-13T11:38:12;4.63;;;2.20;;
18947;SDS011;9607;51.600;7.558;2023-07-13T11:40:45;5.28;;;2.03;;
18947;SDS011;9607;51.600;7.558;2023-07-13T11:43:14;6.22;;;2.00;;
18947;SDS011;9607;51.600;7.558;2023-07-13T11:45:42;4.60;;;1.60;;
18947;SDS011;9607;51.600;7.558;2023-07-13T11:48:19;4.20;;;1.75;;
18947;SDS011;9607;51.600;7.558;2023-07-13T11:50:55;5.43;;;1.92;;
18947;SDS011;9607;51.600;7.558;2023-07-13T11:53:27;4.40;;;1.95;;
18947;SDS011;9607;51.600;7.558;2023-07-13T11:55:57;4.40;;;1.83;;
18947;SDS011;9607;51.600;7.558;2023-07-13T11:58:25;4.32;;;2.08;;
18947;SDS011;9607;51.600;7.558;2023-07-13T12:00:54;6.00;;;1.67;;
18947;SDS011;9607;51.600;7.558;2023-07-13T12:03:25;6.03;;;1.80;;
18947;SDS011;9607;51.600;7.558;2023-07-13T12:05:58;6.47;;;2.05;;
18947;SDS011;9607;51.600;7.558;2023-07-13T12:08:26;3.90;;;1.98;;
18947;SDS011;9607;51.600;7.558;2023-07-13T12:11:00;5.43;;;2.20;;
18947;SDS011;9607;51.600;7.558;2023-07-13T12:13:34;3.58;;;1.73;;
18947;SDS011;9607;51.600;7.558;2023-07-13T12:16:07;5.50;;;2.22;;
18947;SDS011;9607;51.600;7.558;2023-07-13T12:18:38;3.58;;;1.70;;
18947;SDS011;9607;51.600;7.558;2023-07-13T12:21:10;4.75;;;1.75;;
18947;SDS011;9607;51.600;7.558;2023-07-13T12:23:39;3.38;;;1.70;;
18947;SDS011;9607;51.600;7.558;2023-07-13T12:26:10;3.90;;;1.70;;
18947;SDS011;9607;51.600;7.558;2023-07-13T12:28:39;5.05;;;1.90;;
18947;SDS011;9607;51.600;7.558;2023-07-13T12:31:20;4.10;;;1.50;;
18947;SDS011;9607;51.600;7.558;2023-07-13T12:33:55;3.30;;;1.40;;
18947;SDS011;9607;51.600;7.558;2023-07-13T12:36:23;2.72;;;1.58;;
18947;SDS011;9607;51.600;7.558;2023-07-13T12:38:51;4.10;;;1.63;;
18947;SDS011;9607;51.600;7.558;2023-07-13T12:41:19;4.40;;;1.80;;
18947;SDS011;9607;51.600;7.558;2023-07-13T12:43:48;5.05;;;1.60;;
18947;SDS011;9607;51.600;7.558;2023-07-13T12:46:16;3.85;;;1.67;;
18947;SDS011;9607;51.600;7.558;2023-07-13T12:48:47;3.83;;;1.70;;
18947;SDS011;9607;51.600;7.558;2023-07-13T12:51:15;3.10;;;1.50;;
18947;SDS011;9607;51.600;7.558;2023-07-13T12:53:43;3.08;;;1.48;;
18947;SDS011;9607;51.600;7.558;2023-07-13T12:56:17;3.50;;;1.52;;
18947;SDS011;9607;51.600;7.558;2023-07-13T12:58:48;4.65;;;1.63;;
18947;SDS011;9607;51.600;7.558;2023-07-13T13:01:19;6.18;;;1.92;;
18947;SDS011;9607;51.600;7.558;2023-07-13T13:03:49;3.13;;;1.42;;
18947;SDS011;9607;51.600;7.558;2023-07-13T13:06:21;3.40;;;1.55;;
18947;SDS011;9607;51.600;7.558;2023-07-13T13:08:50;3.20;;;1.50;;
18947;SDS011;9607;51.600;7.558;2023-07-13T13:11:18;5.30;;;1.70;;
18947;SDS011;9607;51.600;7.558;2023-07-13T13:13:48;3.40;;;1.38;;
18947;SDS011;9607;51.600;7.558;2023-07-13T13:16:17;4.38;;;1.77;;
18947;SDS011;9607;51.600;7.558;2023-07-13T13:18:46;7.60;;;1.38;;
18947;SDS011;9607;51.600;7.558;2023-07-13T13:21:14;2.97;;;1.35;;
18947;SDS011;9607;51.600;7.558;2023-07-13T13:23:41;3.60;;;1.50;;
18947;SDS011;9607;51.600;7.558;2023-07-13T13:26:09;3.05;;;1.65;;
18947;SDS011;9607;51.600;7.558;2023-07-13T13:28:39;3.30;;;1.98;;
18947;SDS011;9607;51.600;7.558;2023-07-13T13:31:07;2.58;;;1.70;;
18947;SDS011;9607;51.600;7.558;2023-07-13T13:33:38;2.70;;;1.50;;
18947;SDS011;9607;51.600;7.558;2023-07-13T13:36:08;2.63;;;1.67;;
18947;SDS011;9607;51.600;7.558;2023-07-13T13:38:41;4.63;;;1.77;;
18947;SDS011;9607;51.600;7.558;2023-07-13T13:41:09;7.13;;;2.33;;
18947;SDS011;9607;51.600;7.558;2023-07-13T13:43:39;28.23;;;4.13;;
18947;SDS011;9607;51.600;7.558;2023-07-13T13:46:11;14.52;;;2.70;;
18947;SDS011;9607;51.600;7.558;2023-07-13T13:48:40;7.82;;;2.45;;
18947;SDS011;9607;51.600;7.558;2023-07-13T13:51:11;6.15;;;1.95;;
18947;SDS011;9607;51.600;7.558;2023-07-13T13:53:42;9.20;;;2.22;;
18947;SDS011;9607;51.600;7.558;2023-07-13T13:56:10;5.20;;;2.70;;
18947;SDS011;9607;51.600;7.558;2023-07-13T13:58:38;8.63;;;3.05;;
18947;SDS011;9607;51.600;7.558;2023-07-13T14:01:10;7.15;;;3.58;;
18947;SDS011;9607;51.600;7.558;2023-07-13T14:03:39;17.00;;;4.28;;
18947;SDS011;9607;51.600;7.558;2023-07-13T14:06:07;6.45;;;4.05;;
18947;SDS011;9607;51.600;7.558;2023-07-13T14:08:35;6.93;;;4.65;;
18947;SDS011;9607;51.600;7.558;2023-07-13T14:11:02;10.55;;;5.40;;
18947;SDS011;9607;51.600;7.558;2023-07-13T14:13:30;8.95;;;5.85;;
18947;SDS011;9607;51.600;7.558;2023-07-13T14:16:04;7.85;;;6.28;;
18947;SDS011;9607;51.600;7.558;2023-07-13T14:18:35;8.93;;;6.43;;
18947;SDS011;9607;51.600;7.558;2023-07-13T14:21:02;7.35;;;6.25;;
18947;SDS011;9607;51.600;7.558;2023-07-13T14:23:28;7.32;;;6.60;;
18947;SDS011;9607;51.600;7.558;2023-07-13T14:25:55;7.93;;;7.20;;
18947;SDS011;9607;51.600;7.558;2023-07-13T14:28:23;6.53;;;5.75;;
18947;SDS011;9607;51.600;7.558;2023-07-13T14:30:52;6.93;;;6.22;;
18947;SDS011;9607;51.600;7.558;2023-07-13T14:33:21;9.15;;;7.05;;
18947;SDS011;9607;51.600;7.558;2023-07-13T14:35:48;6.47;;;5.18;;
18947;SDS011;9607;51.600;7.558;2023-07-13T14:38:18;5.78;;;5.28;;
18947;SDS011;9607;51.600;7.558;2023-07-13T14:40:46;5.95;;;5.35;;
18947;SDS011;9607;51.600;7.558;2023-07-13T14:43:13;5.10;;;4.57;;
18947;SDS011;9607;51.600;7.558;2023-07-13T14:45:41;5.35;;;4.65;;
18947;SDS011;9607;51.600;7.558;2023-07-13T14:48:14;5.20;;;4.60;;
18947;SDS011;9607;51.600;7.558;2023-07-13T14:50:46;4.38;;;4.05;;
18947;SDS011;9607;51.600;7.558;2023-07-13T14:53:13;4.20;;;3.80;;
18947;SDS011;9607;51.600;7.558;2023-07-13T14:55:40;4.97;;;4.38;;
18947;SDS011;9607;51.600;7.558;2023-07-13T14:58:07;5.20;;;4.68;;
18947;SDS011;9607;51.600;7.558;2023-07-13T15:00:35;5.90;;;4.30;;
18947;SDS011;9607;51.600;7.558;2023-07-13T15:03:02;4.05;;;3.70;;
18947;SDS011;9607;51.600;7.558;2023-07-13T15:05:31;3.60;;;3.30;;
18947;SDS011;9607;51.600;7.558;2023-07-13T15:08:01;5.05;;;4.20;;
18947;SDS011;9607;51.600;7.558;2023-07-13T15:10:30;4.30;;;3.90;;
18947;SDS011;9607;51.600;7.558;2023-07-13T15:13:00;3.42;;;3.13;;
18947;SDS011;9607;51.600;7.558;2023-07-13T15:15:29;3.80;;;3.38;;
18947;SDS011;9607;51.600;7.558;2023-07-13T15:17:58;5.53;;;3.95;;
18947;SDS011;9607;51.600;7.558;2023-07-13T15:20:27;4.28;;;3.88;;
18947;SDS011;9607;51.600;7.558;2023-07-13T15:22:57;9.27;;;5.40;;